sensor_id;sensor_type;location;lat;lon;timestamp;P1;durP1;ratioP1;P2;durP2;ratioP2
56343;SDS011;42245;42.058;24.700;2022-10-24T03:51:42;7.63;;;3.08;;
56343;SDS011;42245;42.058;24.700;2022-10-24T03:54:07;6.65;;;2.70;;
56343;SDS011;42245;42.058;24.700;2022-10-24T03:56:33;4.63;;;2.88;;
56343;SDS011;42245;42.058;24.700;2022-10-24T03:58:59;5.35;;;3.13;;
56343;SDS011;42245;42.058;24.700;2022-10-24T04:01:24;4.28;;;2.72;;
56343;SDS011;42245;42.058;24.700;2022-10-24T04:03:49;4.30;;;2.63;;
56343;SDS011;42245;42.058;24.700;2022-10-24T04:06:15;7.22;;;3.03;;
56343;SDS011;42245;42.058;24.700;2022-10-24T04:08:40;4.05;;;3.05;;
56343;SDS011;42245;42.058;24.700;2022-10-24T04:11:06;6.60;;;2.88;;
56343;SDS011;42245;42.058;24.700;2022-10-24T04:13:32;3.50;;;2.60;;
56343;SDS011;42245;42.058;24.700;2022-10-24T04:15:58;7.25;;;2.85;;
56343;SDS011;42245;42.058;24.700;2022-10-24T04:18:23;4.90;;;2.70;;
56343;SDS011;42245;42.058;24.700;2022-10-24T04:20:48;4.18;;;3.15;;
56343;SDS011;42245;42.058;24.700;2022-10-24T04:23:14;5.72;;;3.05;;
56343;SDS011;42245;42.058;24.700;2022-10-24T04:25:39;4.93;;;2.80;;
56343;SDS011;42245;42.058;24.700;2022-10-24T04:28:05;5.22;;;3.20;;
56343;SDS011;42245;42.058;24.700;2022-10-24T04:30:30;5.60;;;3.03;;
56343;SDS011;42245;42.058;24.700;2022-10-24T04:32:56;5.47;;;3.28;;
56343;SDS011;42245;42.058;24.700;2022-10-24T04:35:22;12.05;;;3.28;;
56343;SDS011;42245;42.058;24.700;2022-10-24T04:37:47;4.55;;;2.72;;
56343;SDS011;42245;42.058;24.700;2022-10-24T04:40:13;4.28;;;2.60;;
56343;SDS011;42245;42.058;24.700;2022-10-24T04:42:38;14.95;;;3.00;;
56343;SDS011;42245;42.058;24.700;2022-10-24T04:45:04;27.23;;;3.92;;
56343;SDS011;42245;42.058;24.700;2022-10-24T04:47:30;14.13;;;3.30;;
56343;SDS011;42245;42.058;24.700;2022-10-24T04:49:56;4.80;;;2.55;;
56343;SDS011;42245;42.058;24.700;2022-10-24T04:52:21;7.28;;;2.90;;
56343;SDS011;42245;42.058;24.700;2022-10-24T04:54:47;8.20;;;2.90;;
56343;SDS011;42245;42.058;24.700;2022-10-24T04:57:12;6.55;;;3.00;;
56343;SDS011;42245;42.058;24.700;2022-10-24T04:59:38;5.93;;;2.88;;
56343;SDS011;42245;42.058;24.700;2022-10-24T05:02:03;7.35;;;2.92;;
56343;SDS011;42245;42.058;24.700;2022-10-24T05:04:29;3.88;;;2.90;;
56343;SDS011;42245;42.058;24.700;2022-10-24T05:06:54;5.80;;;2.78;;
56343;SDS011;42245;42.058;24.700;2022-10-24T05:09:20;5.03;;;3.28;;
56343;SDS011;42245;42.058;24.700;2022-10-24T05:11:45;11.48;;;3.08;;
56343;SDS011;42245;42.058;24.700;2022-10-24T05:14:11;16.58;;;3.40;;
56343;SDS011;42245;42.058;24.700;2022-10-24T05:16:38;9.32;;;2.90;;
56343;SDS011;42245;42.058;24.700;2022-10-24T05:19:03;8.38;;;3.10;;
56343;SDS011;42245;42.058;24.700;2022-10-24T05:21:29;7.95;;;3.60;;
56343;SDS011;42245;42.058;24.700;2022-10-24T05:23:54;7.40;;;3.42;;
56343;SDS011;42245;42.058;24.700;2022-10-24T05:26:20;4.43;;;3.00;;
56343;SDS011;42245;42.058;24.700;2022-10-24T05:28:45;5.10;;;2.92;;
56343;SDS011;42245;42.058;24.700;2022-10-24T05:31:11;5.72;;;2.83;;
56343;SDS011;42245;42.058;24.700;2022-10-24T05:33:36;6.88;;;3.50;;
56343;SDS011;42245;42.058;24.700;2022-10-24T05:36:02;6.05;;;3.33;;
56343;SDS011;42245;42.058;24.700;2022-10-24T05:38:27;6.97;;;3.15;;
56343;SDS011;42245;42.058;24.700;2022-10-24T05:40:52;4.25;;;2.88;;
56343;SDS011;42245;42.058;24.700;2022-10-24T05:43:18;7.78;;;3.10;;
56343;SDS011;42245;42.058;24.700;2022-10-24T05:45:44;5.68;;;3.40;;
56343;SDS011;42245;42.058;24.700;2022-10-24T05:48:12;4.82;;;3.33;;
56343;SDS011;42245;42.058;24.700;2022-10-24T05:50:37;5.20;;;3.15;;
56343;SDS011;42245;42.058;24.700;2022-10-24T05:53:03;9.65;;;3.40;;
56343;SDS011;42245;42.058;24.700;2022-10-24T05:55:30;6.25;;;3.40;;
56343;SDS011;42245;42.058;24.700;2022-10-24T05:57:56;8.77;;;3.80;;
56343;SDS011;42245;42.058;24.700;2022-10-24T06:00:21;5.80;;;3.25;;
56343;SDS011;42245;42.058;24.700;2022-10-24T06:02:46;9.70;;;3.40;;
56343;SDS011;42245;42.058;24.700;2022-10-24T06:05:12;6.65;;;3.30;;
56343;SDS011;42245;42.058;24.700;2022-10-24T06:07:38;8.15;;;3.30;;
56343;SDS011;42245;42.058;24.700;2022-10-24T06:10:06;6.28;;;3.10;;
56343;SDS011;42245;42.058;24.700;2022-10-24T06:12:32;5.18;;;3.03;;
56343;SDS011;42245;42.058;24.700;2022-10-24T06:15:00;4.90;;;3.15;;
56343;SDS011;42245;42.058;24.700;2022-10-24T06:17:26;5.03;;;3.47;;
56343;SDS011;42245;42.058;24.700;2022-10-24T06:19:51;10.23;;;3.42;;
56343;SDS011;42245;42.058;24.700;2022-10-24T06:22:17;8.15;;;3.50;;
56343;SDS011;42245;42.058;24.700;2022-10-24T06:24:43;9.77;;;3.47;;
56343;SDS011;42245;42.058;24.700;2022-10-24T06:27:08;6.93;;;3.60;;
56343;SDS011;42245;42.058;24.700;2022-10-24T06:29:34;8.43;;;3.55;;
56343;SDS011;42245;42.058;24.700;2022-10-24T06:32:00;24.65;;;4.30;;
56343;SDS011;42245;42.058;24.700;2022-10-24T06:34:25;20.17;;;3.90;;
56343;SDS011;42245;42.058;24.700;2022-10-24T06:36:51;14.73;;;3.92;;
56343;SDS011;42245;42.058;24.700;2022-10-24T06:39:16;19.63;;;7.22;;
56343;SDS011;42245;42.058;24.700;2022-10-24T06:41:42;17.50;;;7.25;;
56343;SDS011;42245;42.058;24.700;2022-10-24T06:44:07;16.73;;;6.93;;
56343;SDS011;42245;42.058;24.700;2022-10-24T06:46:33;23.05;;;6.90;;
56343;SDS011;42245;42.058;24.700;2022-10-24T06:48:58;27.42;;;6.57;;
56343;SDS011;42245;42.058;24.700;2022-10-24T06:51:24;13.35;;;5.47;;
56343;SDS011;42245;42.058;24.700;2022-10-24T06:53:49;29.08;;;6.90;;
56343;SDS011;42245;42.058;24.700;2022-10-24T06:56:15;14.85;;;6.65;;
56343;SDS011;42245;42.058;24.700;2022-10-24T06:58:42;15.43;;;5.57;;
56343;SDS011;42245;42.058;24.700;2022-10-24T07:01:12;24.77;;;6.25;;
56343;SDS011;42245;42.058;24.700;2022-10-24T07:03:39;19.10;;;5.57;;
56343;SDS011;42245;42.058;24.700;2022-10-24T07:06:05;13.43;;;5.53;;
56343;SDS011;42245;42.058;24.700;2022-10-24T07:08:35;15.57;;;5.28;;
56343;SDS011;42245;42.058;24.700;2022-10-24T07:11:01;17.35;;;5.32;;
56343;SDS011;42245;42.058;24.700;2022-10-24T07:13:26;10.57;;;4.18;;
56343;SDS011;42245;42.058;24.700;2022-10-24T07:15:52;14.50;;;4.25;;
56343;SDS011;42245;42.058;24.700;2022-10-24T07:18:20;8.88;;;4.45;;
56343;SDS011;42245;42.058;24.700;2022-10-24T07:20:46;9.48;;;4.32;;
56343;SDS011;42245;42.058;24.700;2022-10-24T07:23:11;13.75;;;4.93;;
56343;SDS011;42245;42.058;24.700;2022-10-24T07:25:37;11.23;;;4.70;;
56343;SDS011;42245;42.058;24.700;2022-10-24T07:28:03;14.50;;;5.38;;
56343;SDS011;42245;42.058;24.700;2022-10-24T07:30:29;14.00;;;5.45;;
56343;SDS011;42245;42.058;24.700;2022-10-24T07:32:55;16.35;;;5.15;;
56343;SDS011;42245;42.058;24.700;2022-10-24T07:35:20;16.13;;;5.38;;
56343;SDS011;42245;42.058;24.700;2022-10-24T07:37:47;14.38;;;5.97;;
56343;SDS011;42245;42.058;24.700;2022-10-24T07:40:13;11.82;;;5.38;;
56343;SDS011;42245;42.058;24.700;2022-10-24T07:42:39;8.70;;;5.40;;
56343;SDS011;42245;42.058;24.700;2022-10-24T07:45:04;12.02;;;5.32;;
56343;SDS011;42245;42.058;24.700;2022-10-24T07:47:31;12.00;;;5.13;;
56343;SDS011;42245;42.058;24.700;2022-10-24T07:49:56;18.48;;;5.47;;
56343;SDS011;42245;42.058;24.700;2022-10-24T07:52:22;14.35;;;7.10;;
56343;SDS011;42245;42.058;24.700;2022-10-24T07:54:47;18.33;;;6.05;;
56343;SDS011;42245;42.058;24.700;2022-10-24T07:57:13;40.53;;;6.45;;
56343;SDS011;42245;42.058;24.700;2022-10-24T07:59:38;7.85;;;4.50;;
56343;SDS011;42245;42.058;24.700;2022-10-24T08:02:04;9.40;;;4.60;;
56343;SDS011;42245;42.058;24.700;2022-10-24T08:04:29;6.80;;;4.40;;
56343;SDS011;42245;42.058;24.700;2022-10-24T08:06:55;9.55;;;4.25;;
56343;SDS011;42245;42.058;24.700;2022-10-24T08:09:21;16.67;;;4.68;;
56343;SDS011;42245;42.058;24.700;2022-10-24T08:11:47;11.80;;;4.65;;
56343;SDS011;42245;42.058;24.700;2022-10-24T08:14:13;9.82;;;4.15;;
56343;SDS011;42245;42.058;24.700;2022-10-24T08:16:39;16.80;;;5.00;;
56343;SDS011;42245;42.058;24.700;2022-10-24T08:19:06;11.98;;;4.53;;
56343;SDS011;42245;42.058;24.700;2022-10-24T08:21:31;8.77;;;3.95;;
56343;SDS011;42245;42.058;24.700;2022-10-24T08:23:57;10.30;;;4.45;;
56343;SDS011;42245;42.058;24.700;2022-10-24T08:26:23;11.40;;;4.40;;
56343;SDS011;42245;42.058;24.700;2022-10-24T08:28:50;15.45;;;4.50;;
56343;SDS011;42245;42.058;24.700;2022-10-24T08:31:17;7.93;;;4.47;;
56343;SDS011;42245;42.058;24.700;2022-10-24T08:33:44;13.25;;;4.70;;
56343;SDS011;42245;42.058;24.700;2022-10-24T08:36:29;12.75;;;4.55;;
56343;SDS011;42245;42.058;24.700;2022-10-24T08:38:56;13.10;;;4.75;;
56343;SDS011;42245;42.058;24.700;2022-10-24T08:41:30;12.50;;;4.75;;
56343;SDS011;42245;42.058;24.700;2022-10-24T08:43:58;11.18;;;5.03;;
56343;SDS011;42245;42.058;24.700;2022-10-24T08:49:11;14.23;;;5.45;;
56343;SDS011;42245;42.058;24.700;2022-10-24T08:51:52;10.70;;;5.28;;
56343;SDS011;42245;42.058;24.700;2022-10-24T08:54:30;10.40;;;5.22;;
56343;SDS011;42245;42.058;24.700;2022-10-24T08:57:01;16.35;;;9.15;;
56343;SDS011;42245;42.058;24.700;2022-10-24T08:59:28;16.67;;;5.57;;
56343;SDS011;42245;42.058;24.700;2022-10-24T09:04:37;5.30;;;3.58;;
56343;SDS011;42245;42.058;24.700;2022-10-24T09:07:05;20.55;;;5.63;;
56343;SDS011;42245;42.058;24.700;2022-10-24T09:09:35;8.73;;;4.30;;
56343;SDS011;42245;42.058;24.700;2022-10-24T09:12:07;8.25;;;3.45;;
56343;SDS011;42245;42.058;24.700;2022-10-24T09:14:37;9.18;;;3.58;;
56343;SDS011;42245;42.058;24.700;2022-10-24T09:17:16;9.82;;;5.65;;
56343;SDS011;42245;42.058;24.700;2022-10-24T09:19:46;10.45;;;5.43;;
56343;SDS011;42245;42.058;24.700;2022-10-24T09:22:13;8.10;;;4.97;;
56343;SDS011;42245;42.058;24.700;2022-10-24T09:27:20;7.07;;;3.83;;
56343;SDS011;42245;42.058;24.700;2022-10-24T09:29:53;9.75;;;3.60;;
56343;SDS011;42245;42.058;24.700;2022-10-24T09:32:20;14.38;;;4.95;;
56343;SDS011;42245;42.058;24.700;2022-10-24T09:34:47;11.85;;;5.55;;
56343;SDS011;42245;42.058;24.700;2022-10-24T09:40:15;12.05;;;5.50;;
56343;SDS011;42245;42.058;24.700;2022-10-24T09:42:50;12.13;;;5.00;;
56343;SDS011;42245;42.058;24.700;2022-10-24T09:51:04;10.18;;;4.80;;
56343;SDS011;42245;42.058;24.700;2022-10-24T09:53:35;13.73;;;6.38;;
56343;SDS011;42245;42.058;24.700;2022-10-24T09:56:09;15.27;;;6.20;;
56343;SDS011;42245;42.058;24.700;2022-10-24T09:58:36;10.75;;;4.05;;
56343;SDS011;42245;42.058;24.700;2022-10-24T10:03:39;12.23;;;4.80;;
56343;SDS011;42245;42.058;24.700;2022-10-24T10:06:15;9.40;;;4.28;;
56343;SDS011;42245;42.058;24.700;2022-10-24T10:08:47;13.23;;;4.30;;
56343;SDS011;42245;42.058;24.700;2022-10-24T10:11:14;25.65;;;4.50;;
56343;SDS011;42245;42.058;24.700;2022-10-24T10:16:19;11.77;;;4.13;;
56343;SDS011;42245;42.058;24.700;2022-10-24T10:18:49;15.25;;;4.32;;
56343;SDS011;42245;42.058;24.700;2022-10-24T10:21:20;8.32;;;3.75;;
56343;SDS011;42245;42.058;24.700;2022-10-24T10:23:52;9.23;;;3.60;;
56343;SDS011;42245;42.058;24.700;2022-10-24T10:31:44;9.68;;;3.70;;
56343;SDS011;42245;42.058;24.700;2022-10-24T10:34:19;12.10;;;3.53;;
56343;SDS011;42245;42.058;24.700;2022-10-24T10:44:40;13.90;;;3.40;;
56343;SDS011;42245;42.058;24.700;2022-10-24T10:47:35;8.50;;;3.40;;
56343;SDS011;42245;42.058;24.700;2022-10-24T10:50:21;11.27;;;3.80;;
56343;SDS011;42245;42.058;24.700;2022-10-24T10:52:49;6.18;;;3.50;;
56343;SDS011;42245;42.058;24.700;2022-10-24T10:55:34;7.35;;;3.70;;
56343;SDS011;42245;42.058;24.700;2022-10-24T11:03:51;16.77;;;3.40;;
56343;SDS011;42245;42.058;24.700;2022-10-24T11:06:28;9.25;;;3.50;;
56343;SDS011;42245;42.058;24.700;2022-10-24T11:09:02;10.10;;;3.83;;
56343;SDS011;42245;42.058;24.700;2022-10-24T11:11:36;11.05;;;3.75;;
56343;SDS011;42245;42.058;24.700;2022-10-24T11:16:32;11.77;;;4.35;;
56343;SDS011;42245;42.058;24.700;2022-10-24T11:19:00;13.05;;;3.90;;
56343;SDS011;42245;42.058;24.700;2022-10-24T11:21:29;14.13;;;3.90;;
56343;SDS011;42245;42.058;24.700;2022-10-24T11:24:00;16.00;;;3.95;;
56343;SDS011;42245;42.058;24.700;2022-10-24T11:26:30;12.48;;;3.58;;
56343;SDS011;42245;42.058;24.700;2022-10-24T11:32:17;10.80;;;4.03;;
56343;SDS011;42245;42.058;24.700;2022-10-24T11:37:53;16.20;;;3.85;;
56343;SDS011;42245;42.058;24.700;2022-10-24T11:40:22;17.17;;;4.00;;
56343;SDS011;42245;42.058;24.700;2022-10-24T11:46:00;11.05;;;4.95;;
56343;SDS011;42245;42.058;24.700;2022-10-24T11:48:41;14.73;;;4.60;;
56343;SDS011;42245;42.058;24.700;2022-10-24T11:53:58;10.68;;;3.42;;
56343;SDS011;42245;42.058;24.700;2022-10-24T11:56:34;12.95;;;3.95;;
56343;SDS011;42245;42.058;24.700;2022-10-24T11:59:05;10.48;;;4.00;;
56343;SDS011;42245;42.058;24.700;2022-10-24T12:01:37;17.65;;;4.28;;
56343;SDS011;42245;42.058;24.700;2022-10-24T12:18:21;19.95;;;4.20;;
56343;SDS011;42245;42.058;24.700;2022-10-24T12:21:07;21.15;;;4.53;;
56343;SDS011;42245;42.058;24.700;2022-10-24T12:23:34;15.90;;;4.53;;
56343;SDS011;42245;42.058;24.700;2022-10-24T12:26:03;16.58;;;4.20;;
56343;SDS011;42245;42.058;24.700;2022-10-24T12:28:30;37.53;;;4.90;;
56343;SDS011;42245;42.058;24.700;2022-10-24T12:31:10;13.13;;;3.78;;
56343;SDS011;42245;42.058;24.700;2022-10-24T12:33:44;16.00;;;4.38;;
56343;SDS011;42245;42.058;24.700;2022-10-24T12:36:11;14.43;;;4.32;;
56343;SDS011;42245;42.058;24.700;2022-10-24T12:43:37;16.80;;;4.65;;
56343;SDS011;42245;42.058;24.700;2022-10-24T12:48:42;18.52;;;4.10;;
56343;SDS011;42245;42.058;24.700;2022-10-24T12:51:29;17.55;;;4.15;;
56343;SDS011;42245;42.058;24.700;2022-10-24T12:59:26;16.27;;;4.30;;
56343;SDS011;42245;42.058;24.700;2022-10-24T13:10:09;16.30;;;3.53;;
56343;SDS011;42245;42.058;24.700;2022-10-24T13:15:30;14.27;;;4.07;;
56343;SDS011;42245;42.058;24.700;2022-10-24T13:21:47;17.73;;;4.10;;
56343;SDS011;42245;42.058;24.700;2022-10-24T13:26:42;18.38;;;3.90;;
56343;SDS011;42245;42.058;24.700;2022-10-24T13:29:13;17.42;;;3.95;;
56343;SDS011;42245;42.058;24.700;2022-10-24T13:31:52;17.13;;;4.30;;
56343;SDS011;42245;42.058;24.700;2022-10-24T13:37:46;15.48;;;4.10;;
56343;SDS011;42245;42.058;24.700;2022-10-24T13:40:06;23.17;;;4.88;;
56343;SDS011;42245;42.058;24.700;2022-10-24T13:42:39;12.43;;;4.45;;
56343;SDS011;42245;42.058;24.700;2022-10-24T13:45:22;18.88;;;4.47;;
56343;SDS011;42245;42.058;24.700;2022-10-24T13:48:09;13.98;;;4.57;;
56343;SDS011;42245;42.058;24.700;2022-10-24T13:50:44;21.55;;;4.45;;
56343;SDS011;42245;42.058;24.700;2022-10-24T13:53:21;19.10;;;4.80;;
56343;SDS011;42245;42.058;24.700;2022-10-24T13:55:48;18.90;;;4.03;;
56343;SDS011;42245;42.058;24.700;2022-10-24T14:00:44;16.40;;;4.60;;
56343;SDS011;42245;42.058;24.700;2022-10-24T14:03:15;18.65;;;4.65;;
56343;SDS011;42245;42.058;24.700;2022-10-24T14:10:58;24.75;;;4.60;;
56343;SDS011;42245;42.058;24.700;2022-10-24T14:13:24;24.02;;;4.38;;
56343;SDS011;42245;42.058;24.700;2022-10-24T14:15:53;19.48;;;4.80;;
56343;SDS011;42245;42.058;24.700;2022-10-24T14:18:20;14.98;;;4.00;;
56343;SDS011;42245;42.058;24.700;2022-10-24T14:25:53;15.95;;;4.93;;
56343;SDS011;42245;42.058;24.700;2022-10-24T14:28:25;16.75;;;4.68;;
56343;SDS011;42245;42.058;24.700;2022-10-24T14:30:53;23.58;;;4.63;;
56343;SDS011;42245;42.058;24.700;2022-10-24T14:33:24;16.00;;;4.35;;
56343;SDS011;42245;42.058;24.700;2022-10-24T14:35:52;20.67;;;4.35;;
56343;SDS011;42245;42.058;24.700;2022-10-24T14:38:18;18.90;;;4.20;;
56343;SDS011;42245;42.058;24.700;2022-10-24T14:40:44;15.48;;;4.47;;
56343;SDS011;42245;42.058;24.700;2022-10-24T14:43:15;11.20;;;4.35;;
56343;SDS011;42245;42.058;24.700;2022-10-24T14:45:59;14.93;;;4.68;;
56343;SDS011;42245;42.058;24.700;2022-10-24T14:52:06;20.40;;;4.35;;
56343;SDS011;42245;42.058;24.700;2022-10-24T14:54:34;23.77;;;4.40;;
56343;SDS011;42245;42.058;24.700;2022-10-24T14:57:00;16.30;;;4.30;;
56343;SDS011;42245;42.058;24.700;2022-10-24T14:59:31;14.95;;;4.05;;
56343;SDS011;42245;42.058;24.700;2022-10-24T15:02:01;20.50;;;5.10;;
56343;SDS011;42245;42.058;24.700;2022-10-24T15:04:46;22.85;;;4.53;;
56343;SDS011;42245;42.058;24.700;2022-10-24T15:09:55;19.83;;;4.28;;
56343;SDS011;42245;42.058;24.700;2022-10-24T15:12:26;17.10;;;4.80;;
56343;SDS011;42245;42.058;24.700;2022-10-24T15:14:52;17.98;;;4.30;;
56343;SDS011;42245;42.058;24.700;2022-10-24T15:19:57;21.63;;;4.90;;
56343;SDS011;42245;42.058;24.700;2022-10-24T15:22:32;20.30;;;4.35;;
56343;SDS011;42245;42.058;24.700;2022-10-24T15:24:59;18.73;;;4.68;;
56343;SDS011;42245;42.058;24.700;2022-10-24T15:27:28;18.27;;;4.82;;
56343;SDS011;42245;42.058;24.700;2022-10-24T15:29:55;22.05;;;4.70;;
56343;SDS011;42245;42.058;24.700;2022-10-24T15:32:21;16.60;;;4.73;;
56343;SDS011;42245;42.058;24.700;2022-10-24T15:34:46;19.95;;;4.70;;
56343;SDS011;42245;42.058;24.700;2022-10-24T15:37:19;21.45;;;4.57;;
56343;SDS011;42245;42.058;24.700;2022-10-24T15:39:48;22.05;;;5.10;;
56343;SDS011;42245;42.058;24.700;2022-10-24T15:42:15;17.70;;;4.53;;
56343;SDS011;42245;42.058;24.700;2022-10-24T15:44:40;14.07;;;4.75;;
56343;SDS011;42245;42.058;24.700;2022-10-24T15:47:05;21.60;;;5.32;;
56343;SDS011;42245;42.058;24.700;2022-10-24T15:49:32;26.60;;;5.55;;
56343;SDS011;42245;42.058;24.700;2022-10-24T15:51:59;18.33;;;4.68;;
56343;SDS011;42245;42.058;24.700;2022-10-24T15:54:24;14.48;;;4.38;;
56343;SDS011;42245;42.058;24.700;2022-10-24T15:56:53;20.13;;;4.40;;
56343;SDS011;42245;42.058;24.700;2022-10-24T15:59:19;19.73;;;4.28;;
56343;SDS011;42245;42.058;24.700;2022-10-24T16:01:54;22.05;;;5.30;;
56343;SDS011;42245;42.058;24.700;2022-10-24T16:04:21;20.55;;;4.28;;
56343;SDS011;42245;42.058;24.700;2022-10-24T16:06:48;14.18;;;4.03;;
56343;SDS011;42245;42.058;24.700;2022-10-24T16:09:15;17.75;;;4.38;;
56343;SDS011;42245;42.058;24.700;2022-10-24T16:11:46;15.98;;;4.63;;
56343;SDS011;42245;42.058;24.700;2022-10-24T16:14:19;21.88;;;4.68;;
56343;SDS011;42245;42.058;24.700;2022-10-24T16:16:45;17.70;;;4.57;;
56343;SDS011;42245;42.058;24.700;2022-10-24T16:19:11;15.57;;;4.50;;
56343;SDS011;42245;42.058;24.700;2022-10-24T16:21:37;22.75;;;5.13;;
56343;SDS011;42245;42.058;24.700;2022-10-24T16:24:04;14.48;;;4.25;;
56343;SDS011;42245;42.058;24.700;2022-10-24T16:26:30;18.13;;;5.30;;
56343;SDS011;42245;42.058;24.700;2022-10-24T16:28:55;22.90;;;5.22;;
56343;SDS011;42245;42.058;24.700;2022-10-24T16:31:21;28.17;;;5.50;;
56343;SDS011;42245;42.058;24.700;2022-10-24T16:33:49;18.25;;;4.60;;
56343;SDS011;42245;42.058;24.700;2022-10-24T16:36:16;19.52;;;5.13;;
56343;SDS011;42245;42.058;24.700;2022-10-24T16:38:42;23.58;;;5.28;;
56343;SDS011;42245;42.058;24.700;2022-10-24T16:41:15;30.08;;;5.63;;
56343;SDS011;42245;42.058;24.700;2022-10-24T16:43:42;19.05;;;5.18;;
56343;SDS011;42245;42.058;24.700;2022-10-24T16:46:11;23.65;;;4.55;;
56343;SDS011;42245;42.058;24.700;2022-10-24T16:48:39;17.98;;;4.72;;
56343;SDS011;42245;42.058;24.700;2022-10-24T16:51:08;21.70;;;4.82;;
56343;SDS011;42245;42.058;24.700;2022-10-24T16:53:44;20.37;;;4.87;;
56343;SDS011;42245;42.058;24.700;2022-10-24T16:56:10;16.30;;;4.28;;
56343;SDS011;42245;42.058;24.700;2022-10-24T16:58:37;22.30;;;4.80;;
56343;SDS011;42245;42.058;24.700;2022-10-24T17:01:04;19.58;;;4.80;;
56343;SDS011;42245;42.058;24.700;2022-10-24T17:03:32;27.80;;;4.88;;
56343;SDS011;42245;42.058;24.700;2022-10-24T17:05:58;21.05;;;4.70;;
56343;SDS011;42245;42.058;24.700;2022-10-24T17:08:24;23.60;;;4.40;;
56343;SDS011;42245;42.058;24.700;2022-10-24T17:10:50;21.23;;;4.47;;
56343;SDS011;42245;42.058;24.700;2022-10-24T17:13:18;19.70;;;4.32;;
56343;SDS011;42245;42.058;24.700;2022-10-24T17:15:43;22.35;;;4.95;;
56343;SDS011;42245;42.058;24.700;2022-10-24T17:18:09;27.55;;;5.60;;
56343;SDS011;42245;42.058;24.700;2022-10-24T17:20:34;16.75;;;4.50;;
56343;SDS011;42245;42.058;24.700;2022-10-24T17:23:00;24.20;;;4.63;;
56343;SDS011;42245;42.058;24.700;2022-10-24T17:25:26;23.45;;;4.63;;
56343;SDS011;42245;42.058;24.700;2022-10-24T17:27:52;20.65;;;5.25;;
56343;SDS011;42245;42.058;24.700;2022-10-24T17:30:23;16.10;;;4.22;;
56343;SDS011;42245;42.058;24.700;2022-10-24T17:32:50;25.83;;;4.50;;
56343;SDS011;42245;42.058;24.700;2022-10-24T17:35:17;21.02;;;4.45;;
56343;SDS011;42245;42.058;24.700;2022-10-24T17:40:20;18.25;;;4.47;;
56343;SDS011;42245;42.058;24.700;2022-10-24T17:42:47;17.65;;;4.45;;
56343;SDS011;42245;42.058;24.700;2022-10-24T17:45:15;29.40;;;5.22;;
56343;SDS011;42245;42.058;24.700;2022-10-24T17:47:42;25.05;;;5.07;;
56343;SDS011;42245;42.058;24.700;2022-10-24T17:50:08;26.45;;;4.50;;
56343;SDS011;42245;42.058;24.700;2022-10-24T17:52:34;18.83;;;5.15;;
56343;SDS011;42245;42.058;24.700;2022-10-24T17:55:04;24.35;;;5.05;;
56343;SDS011;42245;42.058;24.700;2022-10-24T17:57:31;20.25;;;4.25;;
56343;SDS011;42245;42.058;24.700;2022-10-24T17:59:56;16.50;;;4.20;;
56343;SDS011;42245;42.058;24.700;2022-10-24T18:02:22;21.20;;;4.65;;
56343;SDS011;42245;42.058;24.700;2022-10-24T18:04:49;17.33;;;4.65;;
56343;SDS011;42245;42.058;24.700;2022-10-24T18:07:15;17.05;;;4.80;;
56343;SDS011;42245;42.058;24.700;2022-10-24T18:09:41;26.30;;;5.40;;
56343;SDS011;42245;42.058;24.700;2022-10-24T18:12:06;20.35;;;4.45;;
56343;SDS011;42245;42.058;24.700;2022-10-24T18:14:33;20.50;;;4.72;;
56343;SDS011;42245;42.058;24.700;2022-10-24T18:17:00;22.58;;;4.90;;
56343;SDS011;42245;42.058;24.700;2022-10-24T18:19:25;21.10;;;4.57;;
56343;SDS011;42245;42.058;24.700;2022-10-24T18:21:51;22.50;;;4.88;;
56343;SDS011;42245;42.058;24.700;2022-10-24T18:24:16;23.40;;;4.95;;
56343;SDS011;42245;42.058;24.700;2022-10-24T18:26:42;22.13;;;4.65;;
56343;SDS011;42245;42.058;24.700;2022-10-24T18:29:07;18.92;;;4.88;;
56343;SDS011;42245;42.058;24.700;2022-10-24T18:31:32;11.55;;;4.00;;
56343;SDS011;42245;42.058;24.700;2022-10-24T18:33:59;15.68;;;4.75;;
56343;SDS011;42245;42.058;24.700;2022-10-24T18:36:26;19.17;;;4.75;;
56343;SDS011;42245;42.058;24.700;2022-10-24T18:38:55;17.00;;;4.63;;
56343;SDS011;42245;42.058;24.700;2022-10-24T18:43:47;18.95;;;4.95;;
56343;SDS011;42245;42.058;24.700;2022-10-24T18:46:12;19.33;;;4.65;;
56343;SDS011;42245;42.058;24.700;2022-10-24T18:48:38;18.98;;;4.32;;
56343;SDS011;42245;42.058;24.700;2022-10-24T18:51:03;19.42;;;4.88;;
56343;SDS011;42245;42.058;24.700;2022-10-24T18:53:29;17.33;;;4.38;;
56343;SDS011;42245;42.058;24.700;2022-10-24T18:55:59;20.48;;;4.60;;
56343;SDS011;42245;42.058;24.700;2022-10-24T18:58:25;17.95;;;3.92;;
56343;SDS011;42245;42.058;24.700;2022-10-24T19:00:50;18.23;;;4.13;;
56343;SDS011;42245;42.058;24.700;2022-10-24T19:03:22;19.02;;;5.05;;
56343;SDS011;42245;42.058;24.700;2022-10-24T19:08:40;18.13;;;4.93;;
56343;SDS011;42245;42.058;24.700;2022-10-24T19:11:06;14.40;;;4.65;;
